createdAt,value
2023-08-01T00:01:42.574Z,15.6
2023-08-01T00:07:36.730Z,15.6
2023-08-01T00:13:29.508Z,15.6
2023-08-01T00:19:32.420Z,15.5
2023-08-01T00:25:23.976Z,15.5
2023-08-01T00:31:20.666Z,15.4
2023-08-01T00:37:12.443Z,15.4
2023-08-01T00:42:49.107Z,15.4
2023-08-01T00:48:41.390Z,15.4
2023-08-01T00:54:32.427Z,15.4
2023-08-01T01:00:24.122Z,15.3
2023-08-01T01:06:17.292Z,15.3
2023-08-01T01:12:10.280Z,15.3
2023-08-01T01:18:02.870Z,15.3
2023-08-01T01:24:00.841Z,15.4
2023-08-01T01:29:52.770Z,15.3
2023-08-01T01:35:45.064Z,15.3
2023-08-01T01:41:06.049Z,15.3
2023-08-01T01:46:58.146Z,15.3
2023-08-01T01:52:49.847Z,15.2
2023-08-01T01:58:42.115Z,15.1
2023-08-01T02:04:33.136Z,14.9
2023-08-01T02:10:24.520Z,14.8
2023-08-01T02:16:16.624Z,14.6
2023-08-01T02:22:08.936Z,14.4
2023-08-01T02:28:02.754Z,14.3
2023-08-01T02:33:56.040Z,14.1
2023-08-01T02:39:47.740Z,13.9
2023-08-01T02:45:39.702Z,13.9
2023-08-01T02:51:31.275Z,13.8
2023-08-01T02:57:22.392Z,13.6
2023-08-01T03:03:15.230Z,13.6
2023-08-01T03:09:01.923Z,13.5
2023-08-01T03:15:06.251Z,13.4
2023-08-01T03:20:57.973Z,13.4
2023-08-01T03:26:49.207Z,13.3
2023-08-01T03:32:41.305Z,13.3
2023-08-01T03:38:32.674Z,13.3
2023-08-01T03:44:24.322Z,13.3
2023-08-01T03:50:15.779Z,13.3
2023-08-01T03:56:07.821Z,13.4
2023-08-01T04:02:00.374Z,13.6
2023-08-01T04:07:53.022Z,13.8
2023-08-01T04:13:44.686Z,14
2023-08-01T04:19:35.718Z,14.3
2023-08-01T04:25:26.619Z,14.6
2023-08-01T04:31:18.799Z,14.9
2023-08-01T04:37:09.415Z,15.4
2023-08-01T04:43:00.693Z,16.4
2023-08-01T04:48:52.141Z,18.2
2023-08-01T04:54:43.582Z,20
2023-08-01T05:00:20.084Z,21.6
2023-08-01T05:06:11.968Z,23.3
2023-08-01T05:12:03.439Z,24.9
2023-08-01T05:17:54.979Z,26.6
2023-08-01T05:23:46.632Z,28.4
2023-08-01T05:29:38.380Z,30.7
2023-08-01T05:35:29.728Z,33
2023-08-01T05:41:21.576Z,35.8
2023-08-01T05:47:13.610Z,38.2
2023-08-01T05:53:05.677Z,41
2023-08-01T05:59:00.102Z,43.5
2023-08-01T06:04:52.884Z,46.4
2023-08-01T06:10:29.570Z,49
2023-08-01T06:16:05.284Z,51.5
2023-08-01T06:21:43.056Z,54.3
2023-08-01T06:27:34.216Z,38.8
2023-08-01T06:33:28.728Z,44.1
2023-08-01T06:39:20.385Z,51
2023-08-01T06:45:12.414Z,44.7
2023-08-01T06:51:05.939Z,43.3
2023-08-01T06:56:57.597Z,52.9
2023-08-01T07:02:49.464Z,44.6
2023-08-01T07:08:45.041Z,44.8
2023-08-01T07:14:36.705Z,56.3
2023-08-01T07:20:28.716Z,46.3
2023-08-01T07:26:22.115Z,46.3
2023-08-01T07:32:14.737Z,47.7
2023-08-01T07:38:06.850Z,49
2023-08-01T07:43:58.590Z,49.8
2023-08-01T07:49:50.812Z,50.6
2023-08-01T07:55:42.763Z,51.3
2023-08-01T08:01:35.046Z,51.4
2023-08-01T08:07:27.785Z,51.3
2023-08-01T08:13:19.475Z,51.4
2023-08-01T08:19:11.254Z,52.3
2023-08-01T08:25:02.970Z,53.3
2023-08-01T08:30:09.072Z,54.4
2023-08-01T08:35:47.427Z,55
2023-08-01T08:41:39.099Z,55
2023-08-01T08:47:31.777Z,55.8
2023-08-01T08:53:24.270Z,57
2023-08-01T08:59:16.231Z,57.9
2023-08-01T09:05:09.419Z,58.7
2023-08-01T09:11:04.117Z,59.8
2023-08-01T09:16:58.575Z,60.1
2023-08-01T09:22:36.826Z,60.4
2023-08-01T09:28:28.756Z,60.1
2023-08-01T09:34:22.626Z,60.6
2023-08-01T09:40:14.832Z,60.6
2023-08-01T09:45:50.491Z,61.9
2023-08-01T09:51:46.310Z,62.6
2023-08-01T09:57:22.374Z,62.8
2023-08-01T10:03:14.702Z,62.8
2023-08-01T10:09:07.382Z,64
2023-08-01T10:14:59.584Z,64.3
2023-08-01T10:20:52.832Z,64.4
2023-08-01T10:26:44.400Z,64.5
2023-08-01T10:32:21.929Z,64.9
2023-08-01T10:37:58.256Z,65.1
2023-08-01T10:43:49.535Z,65.3
2023-08-01T10:49:43.315Z,59.7
2023-08-01T10:55:40.121Z,64
2023-08-01T11:01:32.381Z,64.7
2023-08-01T11:07:09.404Z,64.5
2023-08-01T11:13:00.900Z,65.4
2023-08-01T11:18:52.328Z,64.9
2023-08-01T11:24:28.929Z,64.4
2023-08-01T11:30:20.648Z,64.6
2023-08-01T11:36:13.519Z,64.8
2023-08-01T11:42:05.128Z,64.4
2023-08-01T11:47:57.218Z,64.5
2023-08-01T11:53:49.111Z,64.4
2023-08-01T11:59:42.060Z,64.7
2023-08-01T12:05:35.309Z,65.6
2023-08-01T12:11:29.369Z,64.8
2023-08-01T12:17:22.013Z,64.2
2023-08-01T12:23:30.048Z,63.8
2023-08-01T12:29:22.178Z,63.6
2023-08-01T12:35:13.941Z,63.4
2023-08-01T12:41:06.308Z,62.6
2023-08-01T12:47:02.967Z,62.8
2023-08-01T12:52:54.590Z,62.6
2023-08-01T12:58:46.314Z,62.1
2023-08-01T13:04:23.403Z,61.5
2023-08-01T13:10:15.257Z,61.3
2023-08-01T13:16:19.368Z,61.4
2023-08-01T13:22:14.176Z,60.4
2023-08-01T13:28:05.410Z,59.1
2023-08-01T13:33:57.487Z,60.5
2023-08-01T13:39:49.623Z,63.3
2023-08-01T13:45:40.408Z,67.6
2023-08-01T13:51:49.679Z,56.8
2023-08-01T13:57:40.636Z,57
2023-08-01T14:03:39.457Z,60.3
2023-08-01T14:09:31.947Z,62.6
2023-08-01T14:15:23.516Z,63.4
2023-08-01T14:21:15.791Z,63.9
2023-08-01T14:27:06.624Z,63.8
2023-08-01T14:32:59.437Z,62.9
2023-08-01T14:38:51.163Z,62.1
2023-08-01T14:45:42.855Z,59.9
2023-08-01T14:51:35.303Z,59
2023-08-01T14:57:45.000Z,57.4
2023-08-01T15:03:39.611Z,56.1
2023-08-01T15:09:33.098Z,54.6
2023-08-01T15:15:09.377Z,53.2
2023-08-01T15:20:45.988Z,51.3
2023-08-01T15:26:37.869Z,49.6
2023-08-01T15:32:28.925Z,48.1
2023-08-01T15:38:20.272Z,46.3
2023-08-01T15:44:12.726Z,44.8
2023-08-01T15:50:07.349Z,43.1
2023-08-01T15:55:58.621Z,41.5
2023-08-01T16:01:51.974Z,40.4
2023-08-01T16:07:43.940Z,39.6
2023-08-01T16:13:20.292Z,38.7
2023-08-01T16:19:12.442Z,37.9
2023-08-01T16:24:50.586Z,37.2
2023-08-01T16:30:42.678Z,36.6
2023-08-01T16:36:18.713Z,36.1
2023-08-01T16:42:13.402Z,35.6
2023-08-01T16:48:17.114Z,35.1
2023-08-01T16:54:08.766Z,34.5
2023-08-01T16:59:59.870Z,33.9
2023-08-01T17:05:52.333Z,33.3
2023-08-01T17:11:45.453Z,32.6
2023-08-01T17:17:37.520Z,31.9
2023-08-01T17:23:29.383Z,31.1
2023-08-01T17:29:21.285Z,30.4
2023-08-01T17:35:13.773Z,29.8
2023-08-01T17:41:05.281Z,29.3
2023-08-01T17:46:58.611Z,28.7
2023-08-01T17:52:50.346Z,28.3
2023-08-01T17:58:12.155Z,27.9
2023-08-01T18:03:52.128Z,27.3
2023-08-01T18:09:27.870Z,27
2023-08-01T18:15:05.333Z,26.6
2023-08-01T18:20:42.685Z,26.1
2023-08-01T18:26:34.084Z,25.7
2023-08-01T18:32:25.494Z,25.4
2023-08-01T18:38:18.519Z,25
2023-08-01T18:44:12.418Z,24.6
2023-08-01T18:50:05.256Z,24.3
2023-08-01T18:55:57.218Z,23.9
2023-08-01T19:01:33.926Z,23.7
2023-08-01T19:07:25.675Z,23.4
2023-08-01T19:13:22.965Z,23.1
2023-08-01T19:19:16.699Z,22.8
2023-08-01T19:25:08.840Z,22.5
2023-08-01T19:31:02.546Z,22.2
2023-08-01T19:36:53.489Z,21.9
2023-08-01T19:42:44.440Z,21.7
2023-08-01T19:48:38.192Z,21.5
2023-08-01T19:54:14.352Z,21.3
2023-08-01T20:05:46.624Z,20.9
2023-08-01T20:11:37.592Z,20.8
2023-08-01T20:17:13.586Z,20.6
2023-08-01T20:23:05.342Z,20.4
2023-08-01T20:28:56.408Z,20.2
2023-08-01T20:34:48.023Z,20
2023-08-01T20:40:39.882Z,19.8
2023-08-01T20:46:31.546Z,19.7
2023-08-01T20:52:26.142Z,19.5
2023-08-01T20:58:18.142Z,19.4
2023-08-01T21:04:09.656Z,19.3
2023-08-01T21:10:16.483Z,19.1
2023-08-01T21:16:08.252Z,19.1
2023-08-01T21:21:45.383Z,19
2023-08-01T21:27:37.345Z,18.9
2023-08-01T21:33:15.255Z,18.8
2023-08-01T21:38:51.331Z,18.6
2023-08-01T21:44:43.436Z,18.6
2023-08-01T21:50:35.580Z,18.4
2023-08-01T21:56:27.067Z,18.4
2023-08-01T22:02:20.008Z,18.3
2023-08-01T22:08:13.247Z,18.2
2023-08-01T22:13:50.256Z,17.9
2023-08-01T22:19:27.141Z,17.8
2023-08-01T22:25:19.623Z,17.7
2023-08-01T22:31:11.614Z,17.6
2023-08-01T22:37:03.732Z,17.4
2023-08-01T22:42:55.351Z,17.2
2023-08-01T22:48:31.878Z,17.1
2023-08-01T23:00:12.837Z,16.9
2023-08-01T23:05:49.557Z,16.8
2023-08-01T23:11:55.281Z,16.8
2023-08-01T23:17:31.831Z,16.8
2023-08-01T23:22:53.070Z,16.7
2023-08-01T23:28:45.570Z,16.6
2023-08-01T23:34:22.399Z,16.6
2023-08-01T23:40:13.577Z,16.7
2023-08-01T23:46:05.798Z,16.8
2023-08-01T23:51:57.383Z,16.9
